createdAt,value
2017-07-10T00:01:07.802Z,27
2017-07-10T00:02:17.079Z,27.03
2017-07-10T00:03:26.037Z,27
2017-07-10T00:04:34.677Z,26.99
2017-07-10T00:05:44.266Z,26.92
2017-07-10T00:06:54.160Z,26.97
2017-07-10T00:08:03.425Z,26.95
2017-07-10T00:09:13.001Z,26.95
2017-07-10T00:10:21.954Z,26.95
2017-07-10T00:11:30.626Z,26.97
2017-07-10T00:12:39.582Z,26.97
2017-07-10T00:13:48.866Z,26.97
2017-07-10T00:14:57.512Z,26.95
2017-07-10T00:16:06.460Z,26.97
2017-07-10T00:17:15.432Z,26.92
2017-07-10T00:18:24.393Z,26.91
2017-07-10T00:19:33.393Z,26.99
2017-07-10T00:20:42.666Z,26.89
2017-07-10T00:21:52.400Z,26.89
2017-07-10T00:23:01.983Z,26.87
2017-07-10T00:24:10.621Z,26.89
2017-07-10T00:25:19.277Z,26.85
2017-07-10T00:26:28.575Z,26.88
2017-07-10T00:27:37.852Z,26.87
2017-07-10T00:28:46.814Z,26.81
2017-07-10T00:29:55.785Z,26.77
2017-07-10T00:31:05.069Z,26.85
2017-07-10T00:32:13.717Z,26.76
2017-07-10T00:33:22.683Z,26.75
2017-07-10T00:34:31.958Z,26.69
2017-07-10T00:35:41.236Z,26.65
2017-07-10T00:36:50.880Z,26.54
2017-07-10T00:37:59.583Z,26.58
2017-07-10T00:39:09.175Z,26.54
2017-07-10T00:40:18.457Z,26.55
2017-07-10T00:41:27.723Z,26.6
2017-07-10T00:42:37.008Z,26.5
2017-07-10T00:43:45.968Z,26.52
2017-07-10T00:44:55.391Z,26.52
2017-07-10T00:46:04.992Z,26.48
2017-07-10T00:47:13.623Z,26.48
2017-07-10T00:48:22.273Z,26.44
2017-07-10T00:49:31.540Z,26.5
2017-07-10T00:50:40.818Z,26.43
2017-07-10T00:51:50.089Z,26.44
2017-07-10T00:52:59.040Z,26.4
2017-07-10T00:54:07.677Z,26.43
2017-07-10T00:55:16.944Z,26.4
2017-07-10T00:56:26.269Z,26.37
2017-07-10T00:57:35.849Z,26.36
2017-07-10T00:58:44.810Z,26.32
2017-07-10T00:59:54.074Z,26.35
2017-07-10T01:01:03.981Z,26.36
2017-07-10T01:02:12.951Z,26.36
2017-07-10T01:03:21.598Z,26.3
2017-07-10T01:04:30.547Z,26.32
2017-07-10T01:05:39.822Z,26.3
2017-07-10T01:06:48.799Z,26.28
2017-07-10T01:07:58.070Z,26.35
2017-07-10T01:09:06.763Z,26.32
2017-07-10T01:10:15.407Z,26.33
2017-07-10T01:11:24.992Z,26.33
2017-07-10T01:12:33.948Z,26.35
2017-07-10T01:13:43.226Z,26.32
2017-07-10T01:14:52.183Z,26.33
2017-07-10T01:16:01.172Z,26.36
2017-07-10T01:17:10.756Z,26.39
2017-07-10T01:18:20.046Z,26.43
2017-07-10T01:19:29.633Z,26.4
2017-07-10T01:20:38.595Z,26.4
2017-07-10T01:21:47.229Z,26.39
2017-07-10T01:22:56.515Z,26.39
2017-07-10T01:24:05.162Z,26.37
2017-07-10T01:25:14.438Z,26.33
2017-07-10T01:26:23.705Z,26.35
2017-07-10T01:27:32.981Z,26.35
2017-07-10T01:28:42.253Z,26.36
2017-07-10T01:29:50.909Z,26.3
2017-07-10T01:30:59.871Z,26.3
2017-07-10T01:32:09.140Z,26.33
2017-07-10T01:33:18.427Z,26.26
2017-07-10T01:34:27.703Z,26.32
2017-07-10T01:35:36.670Z,26.32
2017-07-10T01:36:45.305Z,26.26
2017-07-10T01:37:54.654Z,26.28
2017-07-10T01:39:03.314Z,26.3
2017-07-10T01:40:11.947Z,26.32
2017-07-10T01:41:20.602Z,26.28
2017-07-10T01:42:30.187Z,26.29
2017-07-10T01:43:39.774Z,26.33
2017-07-10T01:44:49.052Z,26.35
2017-07-10T01:45:57.715Z,26.33
2017-07-10T01:47:06.668Z,26.26
2017-07-10T01:48:15.682Z,26.3
2017-07-10T01:49:24.966Z,26.32
2017-07-10T01:50:34.241Z,26.33
2017-07-10T01:51:43.516Z,26.25
2017-07-10T01:52:52.537Z,26.21
2017-07-10T01:54:02.119Z,26.26
2017-07-10T01:55:11.409Z,26.25
2017-07-10T01:56:20.046Z,26.3
2017-07-10T01:57:29.647Z,26.26
2017-07-10T01:58:38.930Z,26.23
2017-07-10T01:59:47.884Z,26.21
2017-07-10T02:00:57.162Z,26.2
2017-07-10T02:02:06.432Z,26.2
2017-07-10T02:03:15.694Z,26.09
2017-07-10T02:04:24.975Z,26.1
2017-07-10T02:05:33.924Z,25.95
2017-07-10T02:06:43.189Z,25.98
2017-07-10T02:07:52.470Z,26.07
2017-07-10T02:09:01.734Z,26.02
2017-07-10T02:10:10.692Z,26.02
2017-07-10T02:11:19.980Z,26.02
2017-07-10T02:12:28.942Z,26.02
2017-07-10T02:13:38.219Z,25.98
2017-07-10T02:14:47.805Z,25.97
2017-07-10T02:15:56.445Z,25.97
2017-07-10T02:17:05.473Z,26.02
2017-07-10T02:18:15.050Z,25.92
2017-07-10T02:19:23.703Z,25.97
2017-07-10T02:20:32.657Z,25.98
2017-07-10T02:21:41.621Z,25.97
2017-07-10T02:22:50.907Z,25.91
2017-07-10T02:23:59.551Z,25.91
2017-07-10T02:25:08.274Z,25.88
2017-07-10T02:26:17.254Z,25.85
2017-07-10T02:29:58.902Z,25.8
2017-07-10T02:31:07.857Z,25.77
2017-07-10T02:32:16.817Z,25.73
2017-07-10T02:33:26.086Z,25.72
2017-07-10T02:34:35.369Z,25.75
2017-07-10T02:35:44.013Z,25.65
2017-07-10T02:36:52.981Z,25.6
2017-07-10T02:38:02.569Z,25.61
2017-07-10T02:39:11.858Z,25.62
2017-07-10T02:40:20.819Z,25.55
2017-07-10T02:41:29.487Z,25.55
2017-07-10T02:42:38.505Z,25.57
2017-07-10T02:43:47.464Z,25.47
2017-07-10T02:44:56.413Z,25.58
2017-07-10T02:46:05.366Z,25.55
2017-07-10T02:47:14.322Z,25.55
2017-07-10T02:48:23.630Z,25.6
2017-07-10T02:49:32.273Z,25.6
2017-07-10T02:50:41.251Z,25.5
2017-07-10T02:51:50.195Z,25.45
2017-07-10T02:52:59.155Z,25.45
2017-07-10T02:54:07.794Z,25.46
2017-07-10T02:55:16.763Z,25.52
2017-07-10T02:56:25.723Z,25.46
2017-07-10T02:57:35.327Z,25.46
2017-07-10T02:58:44.602Z,25.46
2017-07-10T02:59:53.896Z,25.39
2017-07-10T03:01:03.485Z,25.33
2017-07-10T03:02:12.760Z,25.43
2017-07-10T03:03:21.720Z,25.33
2017-07-10T03:04:31.000Z,25.3
2017-07-10T03:05:39.970Z,25.35
2017-07-10T03:06:49.268Z,25.38
2017-07-10T03:07:58.852Z,25.32
2017-07-10T03:09:07.505Z,25.4
2017-07-10T03:10:16.474Z,25.3
2017-07-10T03:11:25.742Z,25.35
2017-07-10T03:12:35.642Z,25.36
2017-07-10T03:13:44.931Z,25.4
2017-07-10T03:14:53.886Z,25.35
2017-07-10T03:16:02.887Z,25.33
2017-07-10T03:17:11.847Z,25.3
2017-07-10T03:18:21.107Z,25.35
2017-07-10T03:19:30.716Z,25.35
2017-07-10T03:20:39.985Z,25.39
2017-07-10T03:21:49.258Z,25.38
2017-07-10T03:22:57.900Z,25.38
2017-07-10T03:24:06.867Z,25.43
2017-07-10T03:25:16.125Z,25.42
2017-07-10T03:26:25.399Z,25.32
2017-07-10T03:27:34.370Z,25.46
2017-07-10T03:28:43.659Z,25.38
2017-07-10T03:29:53.244Z,25.38
2017-07-10T03:31:01.895Z,25.38
2017-07-10T03:32:11.167Z,25.46
2017-07-10T03:33:20.133Z,25.35
2017-07-10T03:34:28.792Z,25.38
2017-07-10T03:35:38.376Z,25.35
2017-07-10T03:36:47.647Z,25.36
2017-07-10T03:37:56.928Z,25.42
2017-07-10T03:39:05.889Z,25.35
2017-07-10T03:40:15.158Z,25.38
2017-07-10T03:41:24.117Z,25.43
2017-07-10T03:42:33.078Z,25.39
2017-07-10T03:43:42.038Z,25.47
2017-07-10T03:44:50.675Z,25.45
2017-07-10T03:45:59.649Z,25.47
2017-07-10T03:47:08.615Z,25.5
2017-07-10T03:48:17.255Z,25.47
2017-07-10T03:49:26.539Z,25.5
2017-07-10T03:50:35.517Z,25.47
2017-07-10T03:51:44.160Z,25.5
2017-07-10T03:52:53.120Z,25.55
2017-07-10T03:54:02.392Z,25.47
2017-07-10T03:55:11.659Z,25.51
2017-07-10T03:56:20.318Z,25.46
2017-07-10T03:57:29.285Z,25.54
2017-07-10T03:58:38.557Z,25.62
2017-07-10T03:59:47.521Z,25.57
2017-07-10T04:00:56.800Z,25.57
2017-07-10T04:02:06.080Z,25.5
2017-07-10T04:03:15.349Z,25.54
2017-07-10T04:04:24.631Z,25.55
2017-07-10T04:05:33.588Z,25.51
2017-07-10T04:06:42.538Z,25.55
2017-07-10T04:07:51.549Z,25.54
2017-07-10T04:09:00.817Z,25.52
2017-07-10T04:10:10.712Z,25.57
2017-07-10T04:11:19.351Z,25.57
2017-07-10T04:12:28.623Z,25.47
2017-07-10T04:13:37.596Z,25.52
2017-07-10T04:14:47.198Z,25.5
2017-07-10T04:15:55.854Z,25.52
2017-07-10T04:17:05.120Z,25.45
2017-07-10T04:18:14.380Z,25.5
2017-07-10T04:19:23.663Z,25.55
2017-07-10T04:20:32.623Z,25.54
2017-07-10T04:21:41.577Z,25.54
2017-07-10T04:22:50.218Z,25.46
2017-07-10T04:23:59.177Z,25.45
2017-07-10T04:25:07.821Z,25.46
2017-07-10T04:26:17.099Z,25.5
2017-07-10T04:27:26.371Z,25.54
2017-07-10T04:28:35.332Z,25.47
2017-07-10T04:29:44.296Z,25.5
2017-07-10T04:30:52.931Z,25.5
2017-07-10T04:32:01.883Z,25.52
2017-07-10T04:33:11.161Z,25.58
2017-07-10T04:34:20.189Z,25.55
2017-07-10T04:35:29.156Z,25.54
2017-07-10T04:36:38.120Z,25.51
2017-07-10T04:37:47.076Z,25.57
2017-07-10T04:38:56.671Z,25.51
2017-07-10T04:40:05.958Z,25.46
2017-07-10T04:41:14.966Z,25.61
2017-07-10T04:42:24.191Z,25.52
2017-07-10T04:43:33.460Z,25.61
2017-07-10T04:44:42.423Z,25.46
2017-07-10T04:45:51.069Z,25.57
2017-07-10T04:47:00.673Z,25.51
2017-07-10T04:48:09.625Z,25.57
2017-07-10T04:49:18.889Z,25.54
2017-07-10T04:50:28.794Z,25.6
2017-07-10T04:51:38.076Z,25.57
2017-07-10T04:52:47.038Z,25.55
2017-07-10T04:53:56.630Z,25.58
2017-07-10T04:55:06.221Z,25.58
2017-07-10T04:56:15.561Z,25.64
2017-07-10T04:57:24.526Z,25.64
2017-07-10T04:58:33.493Z,25.7
2017-07-10T04:59:42.833Z,25.76
2017-07-10T05:00:51.798Z,25.8
2017-07-10T05:02:00.772Z,25.87
2017-07-10T05:03:10.044Z,25.91
2017-07-10T05:04:19.404Z,25.98
2017-07-10T05:05:28.407Z,25.92
2017-07-10T05:06:37.054Z,25.95
2017-07-10T05:07:46.648Z,26.06
2017-07-10T05:08:55.626Z,25.99
2017-07-10T05:10:04.911Z,26.01
2017-07-10T05:11:13.945Z,26.1
2017-07-10T05:12:22.914Z,26.1
2017-07-10T05:13:31.556Z,26.09
2017-07-10T05:14:40.521Z,26.2
2017-07-10T05:15:50.451Z,26.29
2017-07-10T05:16:59.408Z,26.21
2017-07-10T05:18:08.367Z,26.29
2017-07-10T05:19:17.320Z,26.33
2017-07-10T05:20:26.274Z,26.39
2017-07-10T05:21:34.919Z,26.45
2017-07-10T05:22:44.221Z,26.4
2017-07-10T05:23:53.176Z,26.44
2017-07-10T05:25:01.828Z,26.44
2017-07-10T05:26:10.482Z,26.5
2017-07-10T05:27:19.496Z,26.58
2017-07-10T05:28:28.136Z,26.57
2017-07-10T05:29:36.787Z,26.58
2017-07-10T05:30:46.057Z,26.65
2017-07-10T05:31:55.007Z,26.63
2017-07-10T05:33:04.295Z,26.66
2017-07-10T05:34:12.932Z,26.67
2017-07-10T05:35:22.536Z,26.67
2017-07-10T05:36:31.822Z,26.7
2017-07-10T05:37:41.098Z,26.81
2017-07-10T05:38:50.058Z,26.76
2017-07-10T05:39:59.325Z,26.8
2017-07-10T05:41:07.978Z,26.77
2017-07-10T05:42:17.248Z,26.8
2017-07-10T05:43:26.232Z,26.82
2017-07-10T05:44:35.846Z,26.87
2017-07-10T05:45:46.059Z,26.89
2017-07-10T05:46:55.697Z,26.82
2017-07-10T05:48:04.727Z,26.82
2017-07-10T05:49:14.121Z,26.88
2017-07-10T05:50:23.707Z,26.89
2017-07-10T05:51:32.742Z,26.87
2017-07-10T05:52:42.323Z,26.91
2017-07-10T05:53:50.982Z,26.95
2017-07-10T05:54:59.644Z,26.81
2017-07-10T05:56:08.915Z,26.94
2017-07-10T05:57:17.869Z,26.92
2017-07-10T05:58:26.826Z,26.95
2017-07-10T05:59:35.789Z,26.95
2017-07-10T06:00:44.498Z,26.97
2017-07-10T06:01:53.151Z,26.99
2017-07-10T06:03:02.595Z,26.94
2017-07-10T06:04:11.240Z,27
2017-07-10T06:05:19.904Z,26.99
2017-07-10T06:06:28.937Z,26.94
2017-07-10T06:07:38.857Z,26.97
2017-07-10T06:08:48.246Z,26.95
2017-07-10T06:09:57.235Z,26.94
2017-07-10T06:11:07.164Z,26.99
2017-07-10T06:12:16.456Z,26.95
2017-07-10T06:13:25.791Z,27
2017-07-10T06:14:35.075Z,27
2017-07-10T06:15:44.473Z,26.99
2017-07-10T06:16:54.058Z,27.09
2017-07-10T06:18:03.712Z,27.12
2017-07-10T06:19:12.370Z,27
2017-07-10T06:20:21.755Z,27.07
2017-07-10T06:21:30.732Z,27.07
2017-07-10T06:22:40.325Z,27.07
2017-07-10T06:23:49.319Z,27.12
2017-07-10T06:24:58.925Z,27.07
2017-07-10T06:26:08.091Z,27.13
2017-07-10T06:27:17.380Z,27.12
2017-07-10T06:28:26.664Z,27.18
2017-07-10T06:29:35.947Z,27.09
2017-07-10T06:30:44.942Z,27.06
2017-07-10T06:31:54.368Z,27.06
2017-07-10T06:33:03.639Z,27.09
2017-07-10T06:34:12.925Z,27.12
2017-07-10T06:35:22.225Z,27.17
2017-07-10T06:36:31.200Z,27.14
2017-07-10T06:37:40.004Z,27.17
2017-07-10T06:38:49.284Z,27.14
2017-07-10T06:39:58.652Z,27.19
2017-07-10T06:41:07.601Z,27.13
2017-07-10T06:42:16.877Z,27.18
2017-07-10T06:43:26.018Z,27.19
2017-07-10T06:44:34.989Z,27.17
2017-07-10T06:45:43.979Z,27.19
2017-07-10T06:46:53.574Z,27.13
2017-07-10T06:48:02.576Z,27.18
2017-07-10T06:49:11.546Z,27.17
2017-07-10T06:50:20.498Z,27.19
2017-07-10T06:51:29.786Z,27.25
2017-07-10T06:52:38.759Z,27.27
2017-07-10T06:53:47.728Z,27.24
2017-07-10T06:54:56.532Z,27.19
2017-07-10T06:56:06.141Z,27.28
2017-07-10T06:57:15.104Z,27.28
2017-07-10T06:58:24.398Z,27.24
2017-07-10T06:59:33.378Z,27.29
2017-07-10T07:00:42.805Z,27.25
2017-07-10T07:01:52.086Z,27.25
2017-07-10T07:03:00.753Z,27.29
2017-07-10T07:04:09.414Z,27.28
2017-07-10T07:05:18.443Z,27.25
2017-07-10T07:06:27.665Z,27.18
2017-07-10T07:07:36.616Z,27.29
2017-07-10T07:08:45.329Z,27.31
2017-07-10T07:09:54.300Z,27.34
2017-07-10T07:11:02.950Z,27.28
2017-07-10T07:12:12.294Z,27.32
2017-07-10T07:13:21.265Z,27.22
2017-07-10T07:14:30.534Z,27.25
2017-07-10T07:15:39.500Z,27.28
2017-07-10T07:16:48.774Z,27.27
2017-07-10T07:17:57.521Z,27.28
2017-07-10T07:19:07.123Z,27.37
2017-07-10T07:20:15.800Z,27.29
2017-07-10T07:21:25.075Z,27.24
2017-07-10T07:22:34.356Z,27.31
2017-07-10T07:23:43.108Z,27.34
2017-07-10T07:24:51.755Z,27.36
2017-07-10T07:26:01.057Z,27.31
2017-07-10T07:27:10.646Z,27.34
2017-07-10T07:28:19.927Z,27.37
2017-07-10T07:29:28.737Z,27.37
2017-07-10T07:30:37.706Z,27.32
2017-07-10T07:31:47.023Z,27.32
2017-07-10T07:32:55.957Z,27.37
2017-07-10T07:34:04.614Z,27.36
2017-07-10T07:35:14.046Z,27.36
2017-07-10T07:36:23.010Z,27.39
2017-07-10T07:37:32.298Z,27.36
2017-07-10T07:38:41.590Z,27.34
2017-07-10T07:39:51.181Z,27.43
2017-07-10T07:41:00.816Z,27.31
2017-07-10T07:42:10.407Z,27.32
2017-07-10T07:43:19.107Z,27.34
2017-07-10T07:44:28.080Z,27.4
2017-07-10T07:45:37.354Z,27.44
2017-07-10T07:46:46.626Z,27.34
2017-07-10T07:47:55.592Z,27.43
2017-07-10T07:49:04.552Z,27.34
2017-07-10T07:50:13.512Z,27.49
2017-07-10T07:51:22.480Z,27.54
2017-07-10T07:52:31.918Z,27.57
2017-07-10T07:53:40.892Z,27.67
2017-07-10T07:54:50.163Z,27.67
2017-07-10T07:55:58.814Z,27.72
2017-07-10T07:57:07.791Z,27.75
2017-07-10T07:58:16.546Z,27.9
2017-07-10T07:59:25.519Z,28.02
2017-07-10T08:00:34.807Z,28.18
2017-07-10T08:01:44.407Z,28.3
2017-07-10T08:02:53.372Z,28.36
2017-07-10T08:04:02.437Z,28.34
2017-07-10T08:05:11.419Z,28.3
2017-07-10T08:06:20.077Z,28.31
2017-07-10T08:07:29.052Z,28.3
2017-07-10T08:08:38.022Z,28.27
2017-07-10T08:09:47.456Z,28.21
2017-07-10T08:10:56.737Z,28.19
2017-07-10T08:12:05.703Z,28.18
2017-07-10T08:13:14.363Z,28.14
2017-07-10T08:14:23.641Z,28.21
2017-07-10T08:15:32.455Z,28.22
2017-07-10T08:16:41.424Z,28.24
2017-07-10T08:17:50.398Z,28.36
2017-07-10T08:18:59.679Z,28.43
2017-07-10T08:20:08.351Z,28.34
2017-07-10T08:21:17.166Z,28.4
2017-07-10T08:22:26.436Z,28.36
2017-07-10T08:23:35.708Z,28.39
2017-07-10T08:24:44.667Z,28.41
2017-07-10T08:25:53.310Z,28.4
2017-07-10T08:27:02.738Z,28.31
2017-07-10T08:28:12.339Z,28.34
2017-07-10T08:29:20.996Z,28.4
2017-07-10T08:30:29.669Z,28.37
2017-07-10T08:31:38.337Z,28.44
2017-07-10T08:32:47.602Z,28.43
2017-07-10T08:33:56.881Z,28.48
2017-07-10T08:35:06.502Z,28.51
2017-07-10T08:36:15.154Z,28.52
2017-07-10T08:37:24.123Z,28.54
2017-07-10T08:38:32.861Z,28.59
2017-07-10T08:39:41.501Z,28.58
2017-07-10T08:40:50.774Z,28.7
2017-07-10T08:42:00.375Z,28.85
2017-07-10T08:43:09.025Z,29
2017-07-10T08:44:18.162Z,29.3
2017-07-10T08:45:27.128Z,29.49
2017-07-10T08:46:36.119Z,29.64
2017-07-10T08:47:45.092Z,29.95
2017-07-10T08:48:54.364Z,29.94
2017-07-10T08:50:03.939Z,29.86
2017-07-10T08:51:12.894Z,29.92
2017-07-10T08:52:21.872Z,29.98
2017-07-10T08:53:30.527Z,29.98
2017-07-10T08:54:39.811Z,29.94
2017-07-10T08:55:49.089Z,29.92
2017-07-10T08:56:58.367Z,29.86
2017-07-10T08:58:07.330Z,29.9
2017-07-10T08:59:16.494Z,29.89
2017-07-10T09:00:25.772Z,29.83
2017-07-10T09:01:35.069Z,29.74
2017-07-10T09:02:44.348Z,29.78
2017-07-10T09:03:53.637Z,29.73
2017-07-10T09:05:02.593Z,29.68
2017-07-10T09:06:11.567Z,29.67
2017-07-10T09:07:21.647Z,29.65
2017-07-10T09:08:30.629Z,29.64
2017-07-10T09:09:39.986Z,29.67
2017-07-10T09:10:48.960Z,29.65
2017-07-10T09:11:57.930Z,29.6
2017-07-10T09:13:07.691Z,29.57
2017-07-10T09:14:16.962Z,29.57
2017-07-10T09:15:25.922Z,29.64
2017-07-10T09:16:35.192Z,29.63
2017-07-10T09:17:44.775Z,29.65
2017-07-10T09:18:53.900Z,29.61
2017-07-10T09:20:03.185Z,29.68
2017-07-10T09:21:12.151Z,29.61
2017-07-10T09:22:21.112Z,29.53
2017-07-10T09:23:30.387Z,29.48
2017-07-10T09:24:39.515Z,29.48
2017-07-10T09:25:48.851Z,29.45
2017-07-10T09:26:58.506Z,29.41
2017-07-10T09:28:07.148Z,29.41
2017-07-10T09:29:16.425Z,29.3
2017-07-10T09:30:25.693Z,29.27
2017-07-10T09:31:34.706Z,29.27
2017-07-10T09:32:44.694Z,29.24
2017-07-10T09:33:53.658Z,29.16
2017-07-10T09:35:02.635Z,29.15
2017-07-10T09:36:11.702Z,29.18
2017-07-10T09:37:20.671Z,29.06
2017-07-10T09:38:29.617Z,29.02
2017-07-10T09:39:38.904Z,29.08
2017-07-10T09:40:48.518Z,29.12
2017-07-10T09:41:57.652Z,29.12
2017-07-10T09:43:06.621Z,28.95
2017-07-10T09:44:15.898Z,29.04
2017-07-10T09:45:25.515Z,28.96
2017-07-10T09:46:34.473Z,28.92
2017-07-10T09:47:43.590Z,29
2017-07-10T09:48:52.873Z,28.93
2017-07-10T09:50:01.838Z,28.9
2017-07-10T09:51:10.817Z,29.02
2017-07-10T09:52:19.790Z,28.92
2017-07-10T09:53:29.548Z,28.98
2017-07-10T09:54:38.195Z,28.93
2017-07-10T09:55:46.859Z,28.92
2017-07-10T09:56:56.455Z,28.93
2017-07-10T09:58:05.424Z,28.95
2017-07-10T09:59:15.177Z,28.9
2017-07-10T10:00:24.146Z,28.93
2017-07-10T10:01:33.430Z,28.9
2017-07-10T10:02:42.704Z,28.9
2017-07-10T10:03:51.992Z,28.93
2017-07-10T10:05:00.703Z,28.81
2017-07-10T10:06:09.983Z,28.93
2017-07-10T10:07:18.954Z,28.93
2017-07-10T10:08:27.931Z,28.96
2017-07-10T10:09:36.601Z,28.86
2017-07-10T10:10:46.244Z,28.96
2017-07-10T10:11:55.526Z,28.86
2017-07-10T10:13:05.139Z,28.85
2017-07-10T10:14:14.111Z,28.89
2017-07-10T10:15:24.010Z,28.86
2017-07-10T10:16:33.084Z,28.86
2017-07-10T10:17:42.069Z,28.81
2017-07-10T10:18:50.745Z,28.81
2017-07-10T10:19:59.402Z,28.73
2017-07-10T10:21:09.011Z,28.73
2017-07-10T10:22:18.282Z,28.76
2017-07-10T10:23:26.970Z,28.76
2017-07-10T10:24:36.572Z,28.78
2017-07-10T10:25:45.550Z,28.74
2017-07-10T10:26:54.513Z,28.66
2017-07-10T10:28:03.893Z,28.68
2017-07-10T10:29:12.851Z,28.64
2017-07-10T10:30:22.453Z,28.67
2017-07-10T10:31:31.735Z,28.67
2017-07-10T10:32:40.699Z,28.67
2017-07-10T10:33:50.143Z,28.68
2017-07-10T10:34:58.789Z,28.68
2017-07-10T10:36:07.778Z,28.62
2017-07-10T10:37:16.745Z,28.64
2017-07-10T10:38:25.724Z,28.68
2017-07-10T10:39:34.855Z,28.55
2017-07-10T10:40:44.149Z,28.58
2017-07-10T10:41:53.795Z,28.61
2017-07-10T10:43:02.758Z,28.58
2017-07-10T10:44:11.415Z,28.54
2017-07-10T10:45:21.482Z,28.55
2017-07-10T10:46:30.772Z,28.55
2017-07-10T10:47:39.423Z,28.55
2017-07-10T10:48:48.694Z,28.55
2017-07-10T10:49:57.971Z,28.55
2017-07-10T10:51:06.785Z,28.56
2017-07-10T10:52:15.761Z,28.56
2017-07-10T10:53:24.721Z,28.58
2017-07-10T10:54:33.694Z,28.56
2017-07-10T10:55:42.979Z,28.54
2017-07-10T10:56:52.152Z,28.55
2017-07-10T10:58:01.120Z,28.61
2017-07-10T10:59:10.085Z,28.48
2017-07-10T11:00:19.368Z,28.61
2017-07-10T11:01:28.336Z,28.56
2017-07-10T11:02:37.774Z,28.51
2017-07-10T11:03:46.432Z,28.55
2017-07-10T11:04:55.712Z,28.59
2017-07-10T11:06:04.672Z,28.55
2017-07-10T11:07:13.646Z,28.58
2017-07-10T11:08:23.704Z,28.54
2017-07-10T11:09:32.675Z,28.52
2017-07-10T11:10:41.646Z,28.58
2017-07-10T11:11:50.930Z,28.55
2017-07-10T11:12:59.902Z,28.55
2017-07-10T11:14:09.008Z,28.54
2017-07-10T11:15:18.276Z,28.58
2017-07-10T11:16:27.602Z,28.7
2017-07-10T11:17:36.880Z,28.61
2017-07-10T11:18:45.850Z,28.61
2017-07-10T11:19:55.183Z,28.67
2017-07-10T11:21:04.469Z,28.61
2017-07-10T11:22:13.453Z,28.56
2017-07-10T11:23:23.048Z,28.67
2017-07-10T11:24:32.017Z,28.55
2017-07-10T11:25:41.456Z,28.55
2017-07-10T11:26:50.438Z,28.54
2017-07-10T11:27:59.482Z,28.48
2017-07-10T11:29:08.778Z,28.58
2017-07-10T11:30:18.363Z,28.46
2017-07-10T11:31:27.802Z,28.48
2017-07-10T11:32:36.773Z,28.44
2017-07-10T11:33:46.099Z,28.55
2017-07-10T11:34:55.069Z,28.59
2017-07-10T11:36:03.730Z,28.49
2017-07-10T11:37:12.855Z,28.44
2017-07-10T11:38:22.141Z,28.55
2017-07-10T11:39:31.419Z,28.55
2017-07-10T11:40:40.694Z,28.52
2017-07-10T11:41:49.971Z,28.51
2017-07-10T11:42:59.397Z,28.51
2017-07-10T11:44:08.364Z,28.52
2017-07-10T11:45:17.665Z,28.46
2017-07-10T11:46:26.302Z,28.54
2017-07-10T11:47:35.576Z,28.55
2017-07-10T11:48:44.952Z,28.41
2017-07-10T11:49:53.913Z,28.51
2017-07-10T11:51:02.555Z,28.41
2017-07-10T11:52:11.517Z,28.44
2017-07-10T11:53:20.174Z,28.48
2017-07-10T11:54:29.299Z,28.46
2017-07-10T11:55:38.277Z,28.41
2017-07-10T11:56:46.926Z,28.51
2017-07-10T11:57:56.219Z,28.51
2017-07-10T11:59:04.884Z,28.44
2017-07-10T12:00:14.152Z,28.48
2017-07-10T12:01:22.809Z,28.44
2017-07-10T12:02:32.106Z,28.43
2017-07-10T12:03:40.772Z,28.54
2017-07-10T12:04:50.059Z,28.44
2017-07-10T12:06:00.075Z,28.46
2017-07-10T12:07:09.034Z,28.51
2017-07-10T12:08:18.064Z,28.51
2017-07-10T12:09:27.044Z,28.48
2017-07-10T12:10:36.014Z,28.51
2017-07-10T12:11:45.083Z,28.44
2017-07-10T12:12:54.047Z,28.51
2017-07-10T12:14:02.701Z,28.37
2017-07-10T12:15:11.366Z,28.41
2017-07-10T12:16:20.338Z,28.48
2017-07-10T12:17:29.055Z,28.36
2017-07-10T12:18:38.346Z,28.36
2017-07-10T12:19:47.626Z,28.39
2017-07-10T12:20:56.592Z,28.33
2017-07-10T12:22:05.884Z,28.33
2017-07-10T12:23:15.013Z,28.39
2017-07-10T12:24:24.609Z,28.33
2017-07-10T12:25:33.263Z,28.36
2017-07-10T12:26:42.568Z,28.37
2017-07-10T12:27:51.220Z,28.37
2017-07-10T12:29:00.967Z,28.37
2017-07-10T12:30:09.959Z,28.39
2017-07-10T12:31:19.251Z,28.48
2017-07-10T12:32:28.844Z,28.43
2017-07-10T12:33:38.125Z,28.49
2017-07-10T12:34:47.712Z,28.39
2017-07-10T12:35:56.681Z,28.46
2017-07-10T12:37:05.650Z,28.43
2017-07-10T12:38:14.933Z,28.43
2017-07-10T12:39:23.887Z,28.36
2017-07-10T12:40:33.461Z,28.41
2017-07-10T12:41:43.078Z,28.49
2017-07-10T12:42:51.758Z,28.44
2017-07-10T12:44:01.352Z,28.41
2017-07-10T12:45:10.316Z,28.48
2017-07-10T12:46:19.644Z,28.44
2017-07-10T12:47:29.237Z,28.44
2017-07-10T12:48:38.530Z,28.44
2017-07-10T12:49:47.815Z,28.44
2017-07-10T12:50:56.799Z,28.46
2017-07-10T12:52:06.156Z,28.41
2017-07-10T12:53:15.453Z,28.43
2017-07-10T12:54:24.412Z,28.54
2017-07-10T12:55:33.385Z,28.64
2017-07-10T12:56:42.350Z,28.61
2017-07-10T12:57:51.701Z,28.55
2017-07-10T12:59:00.675Z,28.52
2017-07-10T13:00:09.954Z,28.59
2017-07-10T13:01:18.923Z,28.55
2017-07-10T13:02:27.904Z,28.56
2017-07-10T13:03:36.922Z,28.59
2017-07-10T13:04:45.595Z,28.54
2017-07-10T13:05:55.524Z,28.7
2017-07-10T13:07:04.489Z,28.64
2017-07-10T13:08:14.087Z,28.67
2017-07-10T13:09:23.462Z,28.59
2017-07-10T13:10:32.073Z,28.59
2017-07-10T13:11:41.361Z,28.59
2017-07-10T13:12:50.020Z,28.56
2017-07-10T13:13:59.619Z,28.56
2017-07-10T13:15:08.623Z,28.61
2017-07-10T13:16:17.946Z,28.55
2017-07-10T13:17:27.869Z,28.59
2017-07-10T13:18:36.917Z,28.48
2017-07-10T13:19:46.513Z,28.48
2017-07-10T13:20:55.585Z,28.49
2017-07-10T13:22:04.870Z,28.61
2017-07-10T13:23:13.827Z,28.55
2017-07-10T13:24:23.426Z,28.56
2017-07-10T13:25:32.086Z,28.49
2017-07-10T13:26:41.203Z,28.55
2017-07-10T13:27:51.205Z,28.49
2017-07-10T13:29:00.495Z,28.54
2017-07-10T13:30:09.140Z,28.48
2017-07-10T13:31:17.798Z,28.46
2017-07-10T13:32:27.072Z,28.54
2017-07-10T13:33:36.195Z,28.54
2017-07-10T13:34:45.193Z,28.46
2017-07-10T13:35:54.169Z,28.46
2017-07-10T13:37:03.145Z,28.54
2017-07-10T13:38:12.469Z,28.33
2017-07-10T13:39:22.077Z,28.49
2017-07-10T13:40:31.048Z,28.39
2017-07-10T13:41:40.079Z,28.39
2017-07-10T13:42:49.166Z,28.37
2017-07-10T13:43:59.084Z,28.39
2017-07-10T13:45:08.053Z,28.36
2017-07-10T13:46:17.654Z,28.33
2017-07-10T13:47:26.443Z,28.37
2017-07-10T13:48:36.037Z,28.36
2017-07-10T13:49:45.143Z,28.34
2017-07-10T13:50:54.116Z,28.31
2017-07-10T13:52:02.825Z,28.29
2017-07-10T13:53:12.529Z,28.25
2017-07-10T13:54:21.603Z,28.29
2017-07-10T13:55:30.580Z,28.33
2017-07-10T13:56:39.235Z,28.25
2017-07-10T13:57:48.199Z,28.29
2017-07-10T13:58:57.505Z,28.27
2017-07-10T14:00:06.790Z,28.27
2017-07-10T14:01:16.135Z,28.25
2017-07-10T14:02:24.806Z,28.27
2017-07-10T14:03:33.475Z,28.27
2017-07-10T14:04:43.065Z,28.31
2017-07-10T14:05:52.041Z,28.3
2017-07-10T14:07:00.698Z,28.27
2017-07-10T14:08:10.303Z,28.25
2017-07-10T14:09:19.578Z,28.29
2017-07-10T14:10:28.550Z,28.27
2017-07-10T14:11:37.527Z,28.29
2017-07-10T14:12:46.884Z,28.34
2017-07-10T14:13:55.867Z,28.33
2017-07-10T14:15:04.842Z,28.34
2017-07-10T14:16:13.528Z,28.33
2017-07-10T14:17:22.518Z,28.39
2017-07-10T14:18:31.861Z,28.33
2017-07-10T14:19:41.136Z,28.34
2017-07-10T14:20:50.409Z,28.3
2017-07-10T14:21:59.695Z,28.39
2017-07-10T14:23:08.971Z,28.34
2017-07-10T14:24:18.434Z,28.4
2017-07-10T14:25:27.397Z,28.39
2017-07-10T14:26:36.054Z,28.44
2017-07-10T14:27:45.338Z,28.4
2017-07-10T14:28:54.631Z,28.39
2017-07-10T14:30:03.793Z,28.39
2017-07-10T14:31:13.113Z,28.46
2017-07-10T14:32:22.702Z,28.37
2017-07-10T14:33:31.975Z,28.51
2017-07-10T14:34:41.562Z,28.43
2017-07-10T14:35:51.001Z,28.46
2017-07-10T14:36:59.983Z,28.41
2017-07-10T14:38:08.953Z,28.36
2017-07-10T14:39:18.547Z,28.46
2017-07-10T14:40:27.838Z,28.34
2017-07-10T14:41:36.968Z,28.36
2017-07-10T14:42:45.941Z,28.41
2017-07-10T14:43:55.554Z,28.37
2017-07-10T14:45:04.520Z,28.37
2017-07-10T14:46:13.492Z,28.36
2017-07-10T14:47:22.926Z,28.33
2017-07-10T14:48:31.568Z,28.34
2017-07-10T14:49:40.849Z,28.39
2017-07-10T14:50:49.806Z,28.36
2017-07-10T14:51:58.775Z,28.37
2017-07-10T14:53:08.411Z,28.33
2017-07-10T14:54:17.690Z,28.43
2017-07-10T14:55:27.293Z,28.39
2017-07-10T14:56:36.903Z,28.41